sensor_id;sensor_type;location;lat;lon;timestamp;P1;durP1;ratioP1;P2;durP2;ratioP2
2386;SDS011;49473;50.772;8.768;2024-03-29T00:02:14;5.00;;;2.57;;
2386;SDS011;49473;50.772;8.768;2024-03-29T00:04:40;4.10;;;1.80;;
2386;SDS011;49473;50.772;8.768;2024-03-29T00:07:06;4.37;;;1.30;;
2386;SDS011;49473;50.772;8.768;2024-03-29T00:09:32;2.63;;;1.93;;
2386;SDS011;49473;50.772;8.768;2024-03-29T00:11:57;3.87;;;1.20;;
2386;SDS011;49473;50.772;8.768;2024-03-29T00:14:23;3.33;;;1.67;;
2386;SDS011;49473;50.772;8.768;2024-03-29T00:16:49;1.57;;;1.47;;
2386;SDS011;49473;50.772;8.768;2024-03-29T00:19:16;4.07;;;1.20;;
2386;SDS011;49473;50.772;8.768;2024-03-29T00:21:42;6.37;;;1.00;;
2386;SDS011;49473;50.772;8.768;2024-03-29T00:24:08;0.97;;;0.70;;
2386;SDS011;49473;50.772;8.768;2024-03-29T00:26:33;2.40;;;1.10;;
2386;SDS011;49473;50.772;8.768;2024-03-29T00:28:59;1.80;;;1.17;;
2386;SDS011;49473;50.772;8.768;2024-03-29T00:31:25;3.90;;;0.80;;
2386;SDS011;49473;50.772;8.768;2024-03-29T00:33:51;2.57;;;1.60;;
2386;SDS011;49473;50.772;8.768;2024-03-29T00:36:18;2.30;;;1.10;;
2386;SDS011;49473;50.772;8.768;2024-03-29T00:38:44;2.40;;;1.00;;
2386;SDS011;49473;50.772;8.768;2024-03-29T00:41:10;0.80;;;0.80;;
2386;SDS011;49473;50.772;8.768;2024-03-29T00:43:35;2.30;;;1.10;;
2386;SDS011;49473;50.772;8.768;2024-03-29T00:46:01;2.63;;;1.20;;
2386;SDS011;49473;50.772;8.768;2024-03-29T00:48:27;1.60;;;1.00;;
2386;SDS011;49473;50.772;8.768;2024-03-29T00:50:53;2.87;;;1.20;;
2386;SDS011;49473;50.772;8.768;2024-03-29T00:53:20;1.40;;;1.00;;
2386;SDS011;49473;50.772;8.768;2024-03-29T00:55:46;1.90;;;1.17;;
2386;SDS011;49473;50.772;8.768;2024-03-29T00:58:12;2.87;;;1.10;;
2386;SDS011;49473;50.772;8.768;2024-03-29T01:00:38;1.20;;;0.80;;
2386;SDS011;49473;50.772;8.768;2024-03-29T01:03:04;1.70;;;1.13;;
2386;SDS011;49473;50.772;8.768;2024-03-29T01:05:29;2.10;;;1.10;;
2386;SDS011;49473;50.772;8.768;2024-03-29T01:07:55;1.37;;;1.20;;
2386;SDS011;49473;50.772;8.768;2024-03-29T01:10:22;3.53;;;1.17;;
2386;SDS011;49473;50.772;8.768;2024-03-29T01:12:48;1.17;;;0.80;;
2386;SDS011;49473;50.772;8.768;2024-03-29T01:15:14;1.50;;;1.03;;
2386;SDS011;49473;50.772;8.768;2024-03-29T01:17:40;1.00;;;1.00;;
2386;SDS011;49473;50.772;8.768;2024-03-29T01:20:06;3.03;;;1.10;;
2386;SDS011;49473;50.772;8.768;2024-03-29T01:22:32;1.40;;;1.30;;
2386;SDS011;49473;50.772;8.768;2024-03-29T01:24:58;4.23;;;0.90;;
2386;SDS011;49473;50.772;8.768;2024-03-29T01:27:25;2.23;;;1.00;;
2386;SDS011;49473;50.772;8.768;2024-03-29T01:29:51;1.60;;;1.00;;
2386;SDS011;49473;50.772;8.768;2024-03-29T01:32:17;1.27;;;1.13;;
2386;SDS011;49473;50.772;8.768;2024-03-29T01:34:43;3.03;;;1.17;;
2386;SDS011;49473;50.772;8.768;2024-03-29T01:37:08;1.20;;;0.97;;
2386;SDS011;49473;50.772;8.768;2024-03-29T01:39:34;1.93;;;0.90;;
2386;SDS011;49473;50.772;8.768;2024-03-29T01:42:00;2.30;;;1.57;;
2386;SDS011;49473;50.772;8.768;2024-03-29T01:44:27;4.07;;;1.30;;
2386;SDS011;49473;50.772;8.768;2024-03-29T01:46:54;1.50;;;1.40;;
2386;SDS011;49473;50.772;8.768;2024-03-29T01:49:21;4.17;;;1.40;;
2386;SDS011;49473;50.772;8.768;2024-03-29T01:51:48;1.03;;;1.00;;
2386;SDS011;49473;50.772;8.768;2024-03-29T01:54:15;1.80;;;0.93;;
2386;SDS011;49473;50.772;8.768;2024-03-29T01:56:43;2.10;;;1.23;;
2386;SDS011;49473;50.772;8.768;2024-03-29T01:59:11;3.73;;;1.10;;
2386;SDS011;49473;50.772;8.768;2024-03-29T02:01:43;2.13;;;1.20;;
2386;SDS011;49473;50.772;8.768;2024-03-29T02:04:11;3.13;;;1.00;;
2386;SDS011;49473;50.772;8.768;2024-03-29T02:06:38;2.97;;;1.13;;
2386;SDS011;49473;50.772;8.768;2024-03-29T02:09:05;3.07;;;0.97;;
2386;SDS011;49473;50.772;8.768;2024-03-29T02:11:32;2.53;;;1.20;;
2386;SDS011;49473;50.772;8.768;2024-03-29T02:14:00;4.67;;;1.30;;
2386;SDS011;49473;50.772;8.768;2024-03-29T02:16:26;1.83;;;1.37;;
2386;SDS011;49473;50.772;8.768;2024-03-29T02:18:54;2.27;;;1.23;;
2386;SDS011;49473;50.772;8.768;2024-03-29T02:21:21;2.40;;;1.63;;
2386;SDS011;49473;50.772;8.768;2024-03-29T02:26:26;2.13;;;1.30;;
2386;SDS011;49473;50.772;8.768;2024-03-29T02:28:56;3.93;;;1.27;;
2386;SDS011;49473;50.772;8.768;2024-03-29T02:31:23;2.00;;;1.27;;
2386;SDS011;49473;50.772;8.768;2024-03-29T02:33:50;2.30;;;1.77;;
2386;SDS011;49473;50.772;8.768;2024-03-29T02:36:17;2.40;;;1.23;;
2386;SDS011;49473;50.772;8.768;2024-03-29T02:38:43;3.07;;;1.23;;
2386;SDS011;49473;50.772;8.768;2024-03-29T02:41:12;2.47;;;1.07;;
2386;SDS011;49473;50.772;8.768;2024-03-29T02:43:38;4.60;;;1.33;;
2386;SDS011;49473;50.772;8.768;2024-03-29T02:46:05;1.37;;;1.10;;
2386;SDS011;49473;50.772;8.768;2024-03-29T02:48:32;1.33;;;1.00;;
2386;SDS011;49473;50.772;8.768;2024-03-29T02:50:57;4.53;;;1.50;;
2386;SDS011;49473;50.772;8.768;2024-03-29T02:53:24;3.57;;;1.83;;
2386;SDS011;49473;50.772;8.768;2024-03-29T02:55:50;2.53;;;1.60;;
2386;SDS011;49473;50.772;8.768;2024-03-29T02:58:18;1.60;;;1.50;;
2386;SDS011;49473;50.772;8.768;2024-03-29T03:00:43;2.40;;;1.40;;
2386;SDS011;49473;50.772;8.768;2024-03-29T03:03:10;2.60;;;1.47;;
2386;SDS011;49473;50.772;8.768;2024-03-29T03:05:39;2.10;;;1.87;;
2386;SDS011;49473;50.772;8.768;2024-03-29T03:08:06;1.53;;;1.20;;
2386;SDS011;49473;50.772;8.768;2024-03-29T03:10:50;1.53;;;1.20;;
2386;SDS011;49473;50.772;8.768;2024-03-29T03:13:25;2.10;;;1.23;;
2386;SDS011;49473;50.772;8.768;2024-03-29T03:15:53;2.40;;;1.30;;
2386;SDS011;49473;50.772;8.768;2024-03-29T03:18:20;3.60;;;1.50;;
2386;SDS011;49473;50.772;8.768;2024-03-29T03:20:49;3.50;;;1.87;;
2386;SDS011;49473;50.772;8.768;2024-03-29T03:23:17;1.20;;;1.10;;
2386;SDS011;49473;50.772;8.768;2024-03-29T03:25:45;2.37;;;1.40;;
2386;SDS011;49473;50.772;8.768;2024-03-29T03:28:12;4.63;;;1.63;;
2386;SDS011;49473;50.772;8.768;2024-03-29T03:30:40;2.47;;;1.43;;
2386;SDS011;49473;50.772;8.768;2024-03-29T03:33:06;5.57;;;1.87;;
2386;SDS011;49473;50.772;8.768;2024-03-29T03:35:33;2.80;;;1.30;;
2386;SDS011;49473;50.772;8.768;2024-03-29T03:37:59;1.90;;;1.57;;
2386;SDS011;49473;50.772;8.768;2024-03-29T03:40:25;3.63;;;1.37;;
2386;SDS011;49473;50.772;8.768;2024-03-29T03:42:51;1.63;;;1.30;;
2386;SDS011;49473;50.772;8.768;2024-03-29T03:45:18;2.60;;;1.27;;
2386;SDS011;49473;50.772;8.768;2024-03-29T03:47:45;1.53;;;1.13;;
2386;SDS011;49473;50.772;8.768;2024-03-29T03:50:12;1.40;;;1.20;;
2386;SDS011;49473;50.772;8.768;2024-03-29T03:52:37;2.17;;;1.30;;
2386;SDS011;49473;50.772;8.768;2024-03-29T03:55:04;1.37;;;0.93;;
2386;SDS011;49473;50.772;8.768;2024-03-29T03:57:30;2.90;;;1.10;;
2386;SDS011;49473;50.772;8.768;2024-03-29T03:59:59;2.93;;;1.33;;
2386;SDS011;49473;50.772;8.768;2024-03-29T04:02:24;1.60;;;0.90;;
2386;SDS011;49473;50.772;8.768;2024-03-29T04:04:52;5.00;;;1.33;;
2386;SDS011;49473;50.772;8.768;2024-03-29T04:07:18;7.13;;;1.43;;
2386;SDS011;49473;50.772;8.768;2024-03-29T04:09:45;3.60;;;1.53;;
2386;SDS011;49473;50.772;8.768;2024-03-29T04:12:11;5.00;;;1.10;;
2386;SDS011;49473;50.772;8.768;2024-03-29T04:14:37;5.33;;;1.73;;
2386;SDS011;49473;50.772;8.768;2024-03-29T04:17:03;1.43;;;1.10;;
2386;SDS011;49473;50.772;8.768;2024-03-29T04:19:30;1.20;;;0.87;;
2386;SDS011;49473;50.772;8.768;2024-03-29T04:21:57;3.77;;;1.00;;
2386;SDS011;49473;50.772;8.768;2024-03-29T04:24:24;2.20;;;1.00;;
2386;SDS011;49473;50.772;8.768;2024-03-29T04:26:49;3.43;;;1.00;;
2386;SDS011;49473;50.772;8.768;2024-03-29T04:29:16;6.27;;;1.20;;
2386;SDS011;49473;50.772;8.768;2024-03-29T04:31:44;3.13;;;1.10;;
2386;SDS011;49473;50.772;8.768;2024-03-29T04:34:11;1.30;;;1.20;;
2386;SDS011;49473;50.772;8.768;2024-03-29T04:36:36;1.10;;;0.90;;
2386;SDS011;49473;50.772;8.768;2024-03-29T04:39:04;3.70;;;1.23;;
2386;SDS011;49473;50.772;8.768;2024-03-29T04:41:33;2.27;;;1.07;;
2386;SDS011;49473;50.772;8.768;2024-03-29T04:44:00;4.43;;;1.40;;
2386;SDS011;49473;50.772;8.768;2024-03-29T04:46:29;2.73;;;1.30;;
2386;SDS011;49473;50.772;8.768;2024-03-29T04:48:56;1.60;;;1.10;;
2386;SDS011;49473;50.772;8.768;2024-03-29T04:51:23;1.10;;;1.00;;
2386;SDS011;49473;50.772;8.768;2024-03-29T04:53:50;1.63;;;1.10;;
2386;SDS011;49473;50.772;8.768;2024-03-29T04:56:18;2.97;;;1.30;;
2386;SDS011;49473;50.772;8.768;2024-03-29T04:58:44;1.30;;;1.10;;
2386;SDS011;49473;50.772;8.768;2024-03-29T05:01:12;2.30;;;1.00;;
2386;SDS011;49473;50.772;8.768;2024-03-29T05:03:38;1.77;;;1.17;;
2386;SDS011;49473;50.772;8.768;2024-03-29T05:06:05;2.60;;;1.27;;
2386;SDS011;49473;50.772;8.768;2024-03-29T05:08:32;2.10;;;1.20;;
2386;SDS011;49473;50.772;8.768;2024-03-29T05:10:59;1.97;;;1.20;;
2386;SDS011;49473;50.772;8.768;2024-03-29T05:13:27;1.53;;;0.97;;
2386;SDS011;49473;50.772;8.768;2024-03-29T05:15:56;1.87;;;1.30;;
2386;SDS011;49473;50.772;8.768;2024-03-29T05:18:22;1.50;;;1.10;;
2386;SDS011;49473;50.772;8.768;2024-03-29T05:20:49;1.73;;;1.10;;
2386;SDS011;49473;50.772;8.768;2024-03-29T05:23:16;1.60;;;0.93;;
2386;SDS011;49473;50.772;8.768;2024-03-29T05:25:43;1.10;;;1.00;;
2386;SDS011;49473;50.772;8.768;2024-03-29T05:28:09;5.93;;;1.30;;
2386;SDS011;49473;50.772;8.768;2024-03-29T05:30:38;1.80;;;1.10;;
2386;SDS011;49473;50.772;8.768;2024-03-29T05:33:04;2.20;;;1.07;;
2386;SDS011;49473;50.772;8.768;2024-03-29T05:35:32;3.03;;;1.20;;
2386;SDS011;49473;50.772;8.768;2024-03-29T05:37:59;1.43;;;1.30;;
2386;SDS011;49473;50.772;8.768;2024-03-29T05:40:26;3.87;;;2.33;;
2386;SDS011;49473;50.772;8.768;2024-03-29T05:42:53;2.13;;;1.47;;
2386;SDS011;49473;50.772;8.768;2024-03-29T05:45:23;3.07;;;1.70;;
2386;SDS011;49473;50.772;8.768;2024-03-29T05:47:53;2.90;;;1.47;;
2386;SDS011;49473;50.772;8.768;2024-03-29T05:50:21;1.17;;;1.10;;
2386;SDS011;49473;50.772;8.768;2024-03-29T05:52:48;1.23;;;1.13;;
2386;SDS011;49473;50.772;8.768;2024-03-29T05:55:17;2.90;;;1.40;;
2386;SDS011;49473;50.772;8.768;2024-03-29T05:57:44;3.70;;;1.40;;
2386;SDS011;49473;50.772;8.768;2024-03-29T06:00:11;2.17;;;1.30;;
2386;SDS011;49473;50.772;8.768;2024-03-29T06:02:39;1.70;;;1.60;;
2386;SDS011;49473;50.772;8.768;2024-03-29T06:05:09;3.80;;;1.47;;
2386;SDS011;49473;50.772;8.768;2024-03-29T06:07:35;2.07;;;1.60;;
2386;SDS011;49473;50.772;8.768;2024-03-29T06:10:03;2.50;;;1.77;;
2386;SDS011;49473;50.772;8.768;2024-03-29T06:12:30;2.50;;;1.47;;
2386;SDS011;49473;50.772;8.768;2024-03-29T06:14:58;1.53;;;1.20;;
2386;SDS011;49473;50.772;8.768;2024-03-29T06:17:43;3.43;;;1.67;;
2386;SDS011;49473;50.772;8.768;2024-03-29T06:20:12;2.00;;;1.27;;
2386;SDS011;49473;50.772;8.768;2024-03-29T06:22:39;2.07;;;1.77;;
2386;SDS011;49473;50.772;8.768;2024-03-29T06:25:06;2.30;;;1.63;;
2386;SDS011;49473;50.772;8.768;2024-03-29T06:27:34;2.43;;;2.10;;
2386;SDS011;49473;50.772;8.768;2024-03-29T06:30:02;4.10;;;2.20;;
2386;SDS011;49473;50.772;8.768;2024-03-29T06:32:30;4.23;;;1.93;;
2386;SDS011;49473;50.772;8.768;2024-03-29T06:34:57;2.40;;;1.60;;
2386;SDS011;49473;50.772;8.768;2024-03-29T06:37:26;4.10;;;2.00;;
2386;SDS011;49473;50.772;8.768;2024-03-29T06:39:53;2.77;;;1.50;;
2386;SDS011;49473;50.772;8.768;2024-03-29T06:42:20;1.60;;;1.33;;
2386;SDS011;49473;50.772;8.768;2024-03-29T06:44:46;1.50;;;1.37;;
2386;SDS011;49473;50.772;8.768;2024-03-29T06:47:13;1.10;;;1.10;;
2386;SDS011;49473;50.772;8.768;2024-03-29T06:49:40;1.60;;;1.47;;
2386;SDS011;49473;50.772;8.768;2024-03-29T06:52:07;1.80;;;1.30;;
2386;SDS011;49473;50.772;8.768;2024-03-29T06:54:35;5.83;;;2.73;;
2386;SDS011;49473;50.772;8.768;2024-03-29T06:57:02;2.80;;;2.13;;
2386;SDS011;49473;50.772;8.768;2024-03-29T06:59:29;3.77;;;1.40;;
2386;SDS011;49473;50.772;8.768;2024-03-29T07:01:55;2.70;;;1.53;;
2386;SDS011;49473;50.772;8.768;2024-03-29T07:04:23;0.90;;;0.90;;
2386;SDS011;49473;50.772;8.768;2024-03-29T07:06:50;1.20;;;1.10;;
2386;SDS011;49473;50.772;8.768;2024-03-29T07:09:17;2.00;;;0.90;;
2386;SDS011;49473;50.772;8.768;2024-03-29T07:11:46;1.20;;;1.03;;
2386;SDS011;49473;50.772;8.768;2024-03-29T07:14:13;1.20;;;1.07;;
2386;SDS011;49473;50.772;8.768;2024-03-29T07:16:40;0.90;;;0.90;;
2386;SDS011;49473;50.772;8.768;2024-03-29T07:19:07;1.70;;;1.00;;
2386;SDS011;49473;50.772;8.768;2024-03-29T07:21:33;1.50;;;1.40;;
2386;SDS011;49473;50.772;8.768;2024-03-29T07:24:00;1.23;;;1.13;;
2386;SDS011;49473;50.772;8.768;2024-03-29T07:26:27;1.53;;;1.43;;
2386;SDS011;49473;50.772;8.768;2024-03-29T07:28:55;1.70;;;1.50;;
2386;SDS011;49473;50.772;8.768;2024-03-29T07:31:22;0.97;;;0.97;;
2386;SDS011;49473;50.772;8.768;2024-03-29T07:33:48;2.10;;;1.70;;
2386;SDS011;49473;50.772;8.768;2024-03-29T07:36:15;2.73;;;1.20;;
2386;SDS011;49473;50.772;8.768;2024-03-29T07:38:42;1.17;;;0.97;;
2386;SDS011;49473;50.772;8.768;2024-03-29T07:41:09;2.30;;;1.07;;
2386;SDS011;49473;50.772;8.768;2024-03-29T07:43:39;2.63;;;2.03;;
2386;SDS011;49473;50.772;8.768;2024-03-29T07:46:08;2.40;;;2.20;;
2386;SDS011;49473;50.772;8.768;2024-03-29T07:48:34;2.33;;;1.83;;
2386;SDS011;49473;50.772;8.768;2024-03-29T07:51:00;1.83;;;1.60;;
2386;SDS011;49473;50.772;8.768;2024-03-29T07:53:27;1.47;;;1.20;;
2386;SDS011;49473;50.772;8.768;2024-03-29T07:55:54;1.10;;;1.00;;
2386;SDS011;49473;50.772;8.768;2024-03-29T07:58:21;1.57;;;1.43;;
2386;SDS011;49473;50.772;8.768;2024-03-29T08:00:49;2.90;;;1.30;;
2386;SDS011;49473;50.772;8.768;2024-03-29T08:03:17;1.90;;;1.70;;
2386;SDS011;49473;50.772;8.768;2024-03-29T08:05:53;1.30;;;1.20;;
2386;SDS011;49473;50.772;8.768;2024-03-29T08:08:23;2.20;;;1.33;;
2386;SDS011;49473;50.772;8.768;2024-03-29T08:10:52;1.30;;;1.20;;
2386;SDS011;49473;50.772;8.768;2024-03-29T08:13:19;4.10;;;1.53;;
2386;SDS011;49473;50.772;8.768;2024-03-29T08:15:47;4.00;;;1.60;;
2386;SDS011;49473;50.772;8.768;2024-03-29T08:18:14;1.40;;;1.23;;
2386;SDS011;49473;50.772;8.768;2024-03-29T08:20:42;1.37;;;1.27;;
2386;SDS011;49473;50.772;8.768;2024-03-29T08:23:09;2.50;;;1.33;;
2386;SDS011;49473;50.772;8.768;2024-03-29T08:25:35;1.50;;;1.40;;
2386;SDS011;49473;50.772;8.768;2024-03-29T08:28:03;2.13;;;1.50;;
2386;SDS011;49473;50.772;8.768;2024-03-29T08:30:30;1.77;;;1.20;;
2386;SDS011;49473;50.772;8.768;2024-03-29T08:33:00;2.03;;;1.30;;
2386;SDS011;49473;50.772;8.768;2024-03-29T08:35:28;1.47;;;1.30;;
2386;SDS011;49473;50.772;8.768;2024-03-29T08:37:56;1.83;;;1.30;;
2386;SDS011;49473;50.772;8.768;2024-03-29T08:40:23;2.43;;;1.80;;
2386;SDS011;49473;50.772;8.768;2024-03-29T08:42:53;2.13;;;2.03;;
2386;SDS011;49473;50.772;8.768;2024-03-29T08:45:20;3.30;;;2.10;;
2386;SDS011;49473;50.772;8.768;2024-03-29T08:47:47;2.83;;;1.60;;
2386;SDS011;49473;50.772;8.768;2024-03-29T08:50:14;1.77;;;1.67;;
2386;SDS011;49473;50.772;8.768;2024-03-29T08:52:41;3.13;;;2.67;;
2386;SDS011;49473;50.772;8.768;2024-03-29T08:55:10;3.37;;;2.57;;
2386;SDS011;49473;50.772;8.768;2024-03-29T08:57:37;3.90;;;3.50;;
2386;SDS011;49473;50.772;8.768;2024-03-29T09:00:04;3.63;;;2.77;;
2386;SDS011;49473;50.772;8.768;2024-03-29T09:02:33;2.70;;;2.50;;
2386;SDS011;49473;50.772;8.768;2024-03-29T09:04:59;2.97;;;1.90;;
2386;SDS011;49473;50.772;8.768;2024-03-29T09:07:27;4.83;;;3.53;;
2386;SDS011;49473;50.772;8.768;2024-03-29T09:09:54;2.70;;;2.50;;
2386;SDS011;49473;50.772;8.768;2024-03-29T09:12:22;3.10;;;2.67;;
2386;SDS011;49473;50.772;8.768;2024-03-29T09:14:49;5.30;;;2.00;;
2386;SDS011;49473;50.772;8.768;2024-03-29T09:17:17;2.03;;;1.80;;
2386;SDS011;49473;50.772;8.768;2024-03-29T09:19:44;4.97;;;1.93;;
2386;SDS011;49473;50.772;8.768;2024-03-29T09:22:10;2.33;;;2.20;;
2386;SDS011;49473;50.772;8.768;2024-03-29T09:24:37;4.40;;;2.30;;
2386;SDS011;49473;50.772;8.768;2024-03-29T09:27:04;2.00;;;1.80;;
2386;SDS011;49473;50.772;8.768;2024-03-29T09:29:33;4.80;;;2.30;;
2386;SDS011;49473;50.772;8.768;2024-03-29T09:32:00;2.73;;;2.53;;
2386;SDS011;49473;50.772;8.768;2024-03-29T09:34:27;3.00;;;2.10;;
2386;SDS011;49473;50.772;8.768;2024-03-29T09:36:53;1.87;;;1.77;;
2386;SDS011;49473;50.772;8.768;2024-03-29T09:39:20;2.73;;;2.50;;
2386;SDS011;49473;50.772;8.768;2024-03-29T09:41:47;4.17;;;2.70;;
2386;SDS011;49473;50.772;8.768;2024-03-29T09:44:14;5.30;;;2.90;;
2386;SDS011;49473;50.772;8.768;2024-03-29T09:46:43;2.07;;;1.70;;
2386;SDS011;49473;50.772;8.768;2024-03-29T09:49:11;2.30;;;2.10;;
2386;SDS011;49473;50.772;8.768;2024-03-29T09:51:38;2.97;;;1.30;;
2386;SDS011;49473;50.772;8.768;2024-03-29T09:54:06;1.57;;;1.47;;
2386;SDS011;49473;50.772;8.768;2024-03-29T09:56:38;2.00;;;1.60;;
2386;SDS011;49473;50.772;8.768;2024-03-29T09:59:05;1.40;;;1.20;;
2386;SDS011;49473;50.772;8.768;2024-03-29T10:01:34;1.37;;;0.90;;
2386;SDS011;49473;50.772;8.768;2024-03-29T10:04:02;2.43;;;1.60;;
2386;SDS011;49473;50.772;8.768;2024-03-29T10:06:32;1.53;;;1.40;;
2386;SDS011;49473;50.772;8.768;2024-03-29T10:09:00;2.40;;;1.30;;
2386;SDS011;49473;50.772;8.768;2024-03-29T10:11:27;1.63;;;1.33;;
2386;SDS011;49473;50.772;8.768;2024-03-29T10:13:54;1.37;;;0.80;;
2386;SDS011;49473;50.772;8.768;2024-03-29T10:16:20;1.00;;;1.00;;
2386;SDS011;49473;50.772;8.768;2024-03-29T10:18:49;1.67;;;1.20;;
2386;SDS011;49473;50.772;8.768;2024-03-29T10:21:17;1.27;;;0.93;;
2386;SDS011;49473;50.772;8.768;2024-03-29T10:23:50;1.20;;;1.00;;
2386;SDS011;49473;50.772;8.768;2024-03-29T10:26:17;2.30;;;1.37;;
2386;SDS011;49473;50.772;8.768;2024-03-29T10:28:45;1.40;;;1.00;;
2386;SDS011;49473;50.772;8.768;2024-03-29T10:31:13;1.90;;;1.03;;
2386;SDS011;49473;50.772;8.768;2024-03-29T10:33:42;2.47;;;0.77;;
2386;SDS011;49473;50.772;8.768;2024-03-29T10:36:09;1.77;;;1.00;;
2386;SDS011;49473;50.772;8.768;2024-03-29T10:38:40;1.00;;;0.87;;
2386;SDS011;49473;50.772;8.768;2024-03-29T10:41:07;0.93;;;0.93;;
2386;SDS011;49473;50.772;8.768;2024-03-29T10:43:34;1.17;;;1.00;;
2386;SDS011;49473;50.772;8.768;2024-03-29T10:46:00;1.63;;;0.80;;
2386;SDS011;49473;50.772;8.768;2024-03-29T10:48:28;0.80;;;0.70;;
2386;SDS011;49473;50.772;8.768;2024-03-29T10:50:58;0.90;;;0.90;;
2386;SDS011;49473;50.772;8.768;2024-03-29T10:53:25;1.30;;;1.10;;
2386;SDS011;49473;50.772;8.768;2024-03-29T10:55:55;2.20;;;0.80;;
2386;SDS011;49473;50.772;8.768;2024-03-29T10:58:24;2.37;;;0.87;;
2386;SDS011;49473;50.772;8.768;2024-03-29T11:00:58;1.50;;;0.90;;
2386;SDS011;49473;50.772;8.768;2024-03-29T11:03:29;4.70;;;1.17;;
2386;SDS011;49473;50.772;8.768;2024-03-29T11:06:02;2.03;;;1.00;;
2386;SDS011;49473;50.772;8.768;2024-03-29T11:08:31;1.97;;;1.10;;
2386;SDS011;49473;50.772;8.768;2024-03-29T11:11:01;6.57;;;1.17;;
2386;SDS011;49473;50.772;8.768;2024-03-29T11:13:31;1.30;;;1.20;;
2386;SDS011;49473;50.772;8.768;2024-03-29T11:16:04;1.87;;;1.50;;
2386;SDS011;49473;50.772;8.768;2024-03-29T11:18:30;1.10;;;0.90;;
2386;SDS011;49473;50.772;8.768;2024-03-29T11:20:58;1.43;;;0.80;;
2386;SDS011;49473;50.772;8.768;2024-03-29T11:23:31;1.30;;;0.93;;
2386;SDS011;49473;50.772;8.768;2024-03-29T11:25:58;1.30;;;1.20;;
2386;SDS011;49473;50.772;8.768;2024-03-29T11:28:28;0.90;;;0.90;;
2386;SDS011;49473;50.772;8.768;2024-03-29T11:30:58;2.63;;;0.83;;
2386;SDS011;49473;50.772;8.768;2024-03-29T11:33:30;1.67;;;1.50;;
2386;SDS011;49473;50.772;8.768;2024-03-29T11:35:58;1.57;;;1.43;;
2386;SDS011;49473;50.772;8.768;2024-03-29T11:38:33;1.27;;;1.17;;
2386;SDS011;49473;50.772;8.768;2024-03-29T11:41:04;1.40;;;1.30;;
2386;SDS011;49473;50.772;8.768;2024-03-29T11:43:33;0.90;;;0.90;;
2386;SDS011;49473;50.772;8.768;2024-03-29T11:46:01;1.73;;;1.17;;
2386;SDS011;49473;50.772;8.768;2024-03-29T11:48:29;1.73;;;0.80;;
2386;SDS011;49473;50.772;8.768;2024-03-29T11:50:57;1.13;;;1.13;;
2386;SDS011;49473;50.772;8.768;2024-03-29T11:53:24;2.00;;;1.10;;
2386;SDS011;49473;50.772;8.768;2024-03-29T11:55:52;1.77;;;1.63;;
2386;SDS011;49473;50.772;8.768;2024-03-29T11:58:20;1.90;;;1.20;;
2386;SDS011;49473;50.772;8.768;2024-03-29T12:00:49;1.67;;;1.57;;
2386;SDS011;49473;50.772;8.768;2024-03-29T12:03:16;1.67;;;1.57;;
2386;SDS011;49473;50.772;8.768;2024-03-29T12:05:45;1.80;;;1.63;;
2386;SDS011;49473;50.772;8.768;2024-03-29T12:08:12;2.07;;;1.50;;
2386;SDS011;49473;50.772;8.768;2024-03-29T12:10:39;2.50;;;1.73;;
2386;SDS011;49473;50.772;8.768;2024-03-29T12:13:06;1.60;;;1.50;;
2386;SDS011;49473;50.772;8.768;2024-03-29T12:15:34;3.13;;;1.53;;
2386;SDS011;49473;50.772;8.768;2024-03-29T12:18:03;1.47;;;1.37;;
2386;SDS011;49473;50.772;8.768;2024-03-29T12:20:31;1.43;;;1.33;;
2386;SDS011;49473;50.772;8.768;2024-03-29T12:22:58;2.80;;;1.90;;
2386;SDS011;49473;50.772;8.768;2024-03-29T12:25:26;2.20;;;2.00;;
2386;SDS011;49473;50.772;8.768;2024-03-29T12:27:53;1.80;;;1.70;;
2386;SDS011;49473;50.772;8.768;2024-03-29T12:30:20;5.17;;;2.30;;
2386;SDS011;49473;50.772;8.768;2024-03-29T12:32:48;2.63;;;2.43;;
2386;SDS011;49473;50.772;8.768;2024-03-29T12:35:16;2.20;;;2.00;;
2386;SDS011;49473;50.772;8.768;2024-03-29T12:37:49;2.00;;;1.90;;
2386;SDS011;49473;50.772;8.768;2024-03-29T12:40:17;2.80;;;2.47;;
2386;SDS011;49473;50.772;8.768;2024-03-29T12:42:47;2.83;;;2.37;;
2386;SDS011;49473;50.772;8.768;2024-03-29T12:45:14;3.10;;;2.80;;
2386;SDS011;49473;50.772;8.768;2024-03-29T12:47:42;4.70;;;2.73;;
2386;SDS011;49473;50.772;8.768;2024-03-29T12:50:10;4.03;;;2.90;;
2386;SDS011;49473;50.772;8.768;2024-03-29T12:52:41;3.53;;;2.90;;
2386;SDS011;49473;50.772;8.768;2024-03-29T12:55:08;3.50;;;3.20;;
2386;SDS011;49473;50.772;8.768;2024-03-29T12:57:35;2.77;;;2.57;;
2386;SDS011;49473;50.772;8.768;2024-03-29T13:00:02;3.33;;;3.03;;
2386;SDS011;49473;50.772;8.768;2024-03-29T13:02:33;3.77;;;2.63;;
2386;SDS011;49473;50.772;8.768;2024-03-29T13:05:01;3.17;;;2.90;;
2386;SDS011;49473;50.772;8.768;2024-03-29T13:07:27;2.50;;;2.30;;
2386;SDS011;49473;50.772;8.768;2024-03-29T13:09:55;2.43;;;2.27;;
2386;SDS011;49473;50.772;8.768;2024-03-29T13:12:23;4.30;;;2.90;;
2386;SDS011;49473;50.772;8.768;2024-03-29T13:14:51;2.50;;;2.40;;
2386;SDS011;49473;50.772;8.768;2024-03-29T13:17:18;2.83;;;2.50;;
2386;SDS011;49473;50.772;8.768;2024-03-29T13:19:45;3.37;;;3.07;;
2386;SDS011;49473;50.772;8.768;2024-03-29T13:22:12;3.50;;;3.20;;
2386;SDS011;49473;50.772;8.768;2024-03-29T13:24:38;3.37;;;2.90;;
2386;SDS011;49473;50.772;8.768;2024-03-29T13:27:06;2.63;;;2.43;;
2386;SDS011;49473;50.772;8.768;2024-03-29T13:29:33;3.10;;;2.90;;
2386;SDS011;49473;50.772;8.768;2024-03-29T13:32:00;3.00;;;2.80;;
2386;SDS011;49473;50.772;8.768;2024-03-29T13:34:27;2.83;;;2.67;;
2386;SDS011;49473;50.772;8.768;2024-03-29T13:36:54;2.60;;;2.40;;
2386;SDS011;49473;50.772;8.768;2024-03-29T13:39:20;2.90;;;2.37;;
2386;SDS011;49473;50.772;8.768;2024-03-29T13:41:48;2.77;;;2.57;;
2386;SDS011;49473;50.772;8.768;2024-03-29T13:44:16;2.77;;;2.57;;
2386;SDS011;49473;50.772;8.768;2024-03-29T13:46:44;3.03;;;2.80;;
2386;SDS011;49473;50.772;8.768;2024-03-29T13:49:10;3.63;;;3.33;;
2386;SDS011;49473;50.772;8.768;2024-03-29T13:51:38;3.40;;;3.20;;
2386;SDS011;49473;50.772;8.768;2024-03-29T13:54:05;4.20;;;2.90;;
2386;SDS011;49473;50.772;8.768;2024-03-29T13:56:32;3.80;;;3.50;;
2386;SDS011;49473;50.772;8.768;2024-03-29T13:58:58;4.80;;;4.30;;
2386;SDS011;49473;50.772;8.768;2024-03-29T14:01:26;4.73;;;4.33;;
2386;SDS011;49473;50.772;8.768;2024-03-29T14:03:53;4.17;;;3.87;;
2386;SDS011;49473;50.772;8.768;2024-03-29T14:06:20;2.40;;;2.30;;
2386;SDS011;49473;50.772;8.768;2024-03-29T14:08:47;2.73;;;2.53;;
2386;SDS011;49473;50.772;8.768;2024-03-29T14:11:14;2.23;;;2.13;;
2386;SDS011;49473;50.772;8.768;2024-03-29T14:13:43;1.90;;;1.80;;
2386;SDS011;49473;50.772;8.768;2024-03-29T14:16:12;2.30;;;2.10;;
2386;SDS011;49473;50.772;8.768;2024-03-29T14:18:40;3.47;;;3.27;;
2386;SDS011;49473;50.772;8.768;2024-03-29T14:21:07;2.13;;;2.03;;
2386;SDS011;49473;50.772;8.768;2024-03-29T14:23:34;2.60;;;2.50;;
2386;SDS011;49473;50.772;8.768;2024-03-29T14:26:00;2.63;;;2.43;;
2386;SDS011;49473;50.772;8.768;2024-03-29T14:28:27;2.80;;;2.60;;
2386;SDS011;49473;50.772;8.768;2024-03-29T14:30:53;3.40;;;3.10;;
2386;SDS011;49473;50.772;8.768;2024-03-29T14:33:20;5.43;;;3.20;;
2386;SDS011;49473;50.772;8.768;2024-03-29T14:35:48;3.20;;;3.10;;
2386;SDS011;49473;50.772;8.768;2024-03-29T14:38:15;3.17;;;2.97;;
2386;SDS011;49473;50.772;8.768;2024-03-29T14:40:42;2.73;;;2.37;;
2386;SDS011;49473;50.772;8.768;2024-03-29T14:43:09;2.30;;;2.20;;
2386;SDS011;49473;50.772;8.768;2024-03-29T14:45:38;2.50;;;2.40;;
2386;SDS011;49473;50.772;8.768;2024-03-29T14:48:05;2.40;;;2.20;;
2386;SDS011;49473;50.772;8.768;2024-03-29T14:50:32;2.00;;;1.83;;
2386;SDS011;49473;50.772;8.768;2024-03-29T14:53:00;2.30;;;2.20;;
2386;SDS011;49473;50.772;8.768;2024-03-29T14:55:27;2.90;;;2.70;;
2386;SDS011;49473;50.772;8.768;2024-03-29T14:57:54;4.47;;;3.23;;
2386;SDS011;49473;50.772;8.768;2024-03-29T15:00:21;3.17;;;2.87;;
2386;SDS011;49473;50.772;8.768;2024-03-29T15:02:49;2.97;;;2.47;;
2386;SDS011;49473;50.772;8.768;2024-03-29T15:05:16;3.90;;;3.60;;